Time;durP1;ratioP1;P1;durP2;ratioP2;P2;SDS_P1;SDS_P2;PMS_P1;PMS_P2;Temp;Humidity;BMP_temperature;BMP_pressure;BME280_temperature;BME280_humidity;BME280_pressure;Samples;Min_cycle;Max_cycle;Signal;HPM_P1;HPM_P2
2023/06/19 00:00:15;;;;;;;8.07;4.63;;;20.50;13.80;;;;;;5042600;28;20229;-85
2023/06/19 00:02:42;;;;;;;5.83;4.10;;;20.30;18.30;;;;;;5072805;28;20177;-87
2023/06/19 00:05:09;;;;;;;5.53;4.10;;;20.30;21.60;;;;;;5054593;28;20217;-86
2023/06/19 00:07:36;;;;;;;5.63;4.40;;;20.30;22.90;;;;;;5055225;28;20231;-85
2023/06/19 00:10:03;;;;;;;7.13;4.40;;;20.30;24.90;;;;;;5055620;28;20524;-85
2023/06/19 00:12:29;;;;;;;5.63;4.30;;;20.20;26.60;;;;;;5048248;28;20204;-86
2023/06/19 00:14:54;;;;;;;5.20;4.17;;;20.20;28.50;;;;;;5075649;28;20208;-86
2023/06/19 00:17:20;;;;;;;5.97;4.40;;;20.20;30.70;;;;;;5058656;28;20610;-86
2023/06/19 00:19:48;;;;;;;5.00;3.93;;;20.20;31.00;;;;;;5057934;28;20652;-85
2023/06/19 00:22:27;;;;;;;6.27;4.30;;;20.20;31.50;;;;;;5056040;28;20203;-88
2023/06/19 00:24:52;;;;;;;5.07;3.97;;;20.20;33.40;;;;;;5056669;28;20157;-84
2023/06/19 00:27:18;;;;;;;6.53;3.80;;;20.20;30.70;;;;;;5039389;28;20221;-84
2023/06/19 00:29:44;;;;;;;5.57;3.70;;;20.20;33.20;;;;;;5055733;28;20197;-86
2023/06/19 00:32:10;;;;;;;4.67;3.73;;;20.20;36.00;;;;;;5037112;28;20204;-86
2023/06/19 00:34:36;;;;;;;6.50;4.13;;;20.20;34.50;;;;;;5057572;28;20171;-86
2023/06/19 00:37:03;;;;;;;6.33;3.80;;;20.20;38.30;;;;;;5077022;28;20191;-83
2023/06/19 00:39:32;;;;;;;5.00;3.40;;;20.20;39.20;;;;;;5071915;28;20213;-88
2023/06/19 00:41:58;;;;;;;4.30;3.43;;;20.20;40.60;;;;;;5060650;28;20171;-85
2023/06/19 00:44:27;;;;;;;7.90;3.80;;;20.20;39.00;;;;;;5062397;28;20227;-85
2023/06/19 00:46:58;;;;;;;4.33;3.40;;;20.30;37.50;;;;;;5043691;28;20183;-85
2023/06/19 00:49:25;;;;;;;4.70;3.77;;;20.40;36.50;;;;;;5043308;28;20177;-85
2023/06/19 00:51:52;;;;;;;5.13;3.70;;;20.20;39.70;;;;;;5042514;28;20213;-87
2023/06/19 00:54:18;;;;;;;6.27;4.30;;;20.00;44.70;;;;;;5058111;28;20176;-85
2023/06/19 00:56:45;;;;;;;5.60;3.77;;;20.00;51.70;;;;;;5039324;28;20234;-87
2023/06/19 00:59:17;;;;;;;6.67;3.73;;;20.00;52.70;;;;;;5058035;28;20184;-87
2023/06/19 01:01:43;;;;;;;4.90;3.53;;;20.00;55.00;;;;;;5059704;28;20168;-86
2023/06/19 01:04:11;;;;;;;8.50;5.10;;;20.00;57.40;;;;;;5058334;28;20165;-87
2023/06/19 01:06:52;;;;;;;8.20;5.50;;;20.10;55.70;;;;;;5058410;28;20622;-86
2023/06/19 01:09:19;;;;;;;8.63;7.70;;;20.20;54.70;;;;;;5040678;28;20174;-87
2023/06/19 01:11:51;;;;;;;7.77;6.67;;;20.20;51.70;;;;;;5040825;28;20660;-85
2023/06/19 01:14:25;;;;;;;11.47;10.23;;;20.20;53.20;;;;;;5059172;28;20169;-87
2023/06/19 01:16:51;;;;;;;12.00;10.80;;;20.10;58.20;;;;;;5059703;28;20165;-85
2023/06/19 01:19:21;;;;;;;17.07;15.53;;;20.10;58.90;;;;;;5042203;28;20169;-87
2023/06/19 01:21:49;;;;;;;15.30;13.90;;;20.00;61.30;;;;;;5049762;28;20161;-84
2023/06/19 01:24:15;;;;;;;12.37;9.23;;;20.10;62.90;;;;;;5063129;28;20196;-81
2023/06/19 01:26:41;;;;;;;10.03;8.40;;;20.10;63.10;;;;;;5080203;28;20155;-85
2023/06/19 01:29:08;;;;;;;13.23;11.83;;;20.20;59.30;;;;;;5080438;28;20158;-81
2023/06/19 01:31:54;;;;;;;12.63;10.90;;;20.20;58.60;;;;;;5080623;28;20213;-81
2023/06/19 01:34:25;;;;;;;9.00;5.87;;;20.20;61.80;;;;;;5078907;28;20150;-84
2023/06/19 01:37:05;;;;;;;6.80;5.30;;;20.10;62.20;;;;;;5046747;28;20218;-88
2023/06/19 01:40:09;;;;;;;7.17;4.70;;;20.20;64.40;;;;;;5060102;28;20184;-85
2023/06/19 01:42:37;;;;;;;7.27;4.90;;;20.10;68.80;;;;;;5073861;28;20179;-85
2023/06/19 01:45:04;;;;;;;4.90;4.17;;;20.10;69.00;;;;;;5070852;28;20220;-86
2023/06/19 01:47:30;;;;;;;7.37;3.93;;;20.10;69.40;;;;;;5039391;28;20283;-85
2023/06/19 01:49:55;;;;;;;5.60;4.50;;;20.10;73.00;;;;;;5039393;28;20316;-85
2023/06/19 01:52:24;;;;;;;8.80;5.17;;;20.10;75.00;;;;;;5057150;28;20235;-85
2023/06/19 01:54:50;;;;;;;7.33;4.87;;;20.10;78.10;;;;;;5056670;28;20157;-86
2023/06/19 01:57:16;;;;;;;6.50;5.00;;;20.00;83.10;;;;;;5057205;28;20174;-87
2023/06/19 01:59:41;;;;;;;6.40;4.77;;;20.00;83.40;;;;;;5038528;28;20261;-87
2023/06/19 02:02:07;;;;;;;7.23;4.80;;;20.00;85.70;;;;;;5056970;28;20175;-87
2023/06/19 02:04:34;;;;;;;7.37;5.33;;;20.00;88.00;;;;;;5057167;28;20637;-85
2023/06/19 02:06:59;;;;;;;8.60;5.47;;;19.90;88.10;;;;;;5056714;28;20601;-86
2023/06/19 02:09:25;;;;;;;5.67;4.30;;;20.00;88.10;;;;;;5056968;28;20191;-87
2023/06/19 02:11:50;;;;;;;7.93;4.90;;;20.20;82.90;;;;;;5056856;28;20216;-86
2023/06/19 02:14:17;;;;;;;6.53;4.87;;;20.20;81.00;;;;;;5057235;28;20231;-86
2023/06/19 02:16:43;;;;;;;8.60;5.50;;;20.10;83.50;;;;;;5055670;28;20169;-88
2023/06/19 02:19:12;;;;;;;6.60;4.83;;;20.10;84.10;;;;;;5056236;28;20817;-86
2023/06/19 02:21:38;;;;;;;6.07;4.87;;;20.10;84.40;;;;;;5056853;28;20182;-87
2023/06/19 02:24:04;;;;;;;7.10;4.83;;;20.10;83.90;;;;;;5039498;28;20211;-87
2023/06/19 02:26:30;;;;;;;8.23;4.90;;;20.20;83.40;;;;;;5056171;28;20195;-87
2023/06/19 02:28:56;;;;;;;6.80;5.40;;;20.20;79.80;;;;;;5057016;28;20202;-88
2023/06/19 02:31:24;;;;;;;6.10;5.50;;;20.30;78.40;;;;;;5056826;28;20172;-87
2023/06/19 02:33:51;;;;;;;8.67;6.00;;;20.20;80.20;;;;;;5057649;28;20188;-86
2023/06/19 02:36:19;;;;;;;7.40;5.87;;;20.30;76.90;;;;;;5056998;28;20561;-86
2023/06/19 02:38:46;;;;;;;6.97;5.53;;;20.20;79.00;;;;;;5056865;28;20705;-87
2023/06/19 02:41:12;;;;;;;7.37;6.30;;;20.10;83.90;;;;;;5057454;28;20161;-86
2023/06/19 02:43:40;;;;;;;6.43;5.50;;;20.10;89.40;;;;;;5056547;28;20259;-86
2023/06/19 02:46:06;;;;;;;7.60;6.10;;;20.10;90.00;;;;;;5060970;28;20506;-84
2023/06/19 02:48:32;;;;;;;7.60;6.30;;;20.20;88.00;;;;;;5061347;28;20254;-83
2023/06/19 02:50:58;;;;;;;11.10;6.23;;;20.20;88.90;;;;;;5055266;28;20588;-84
2023/06/19 02:53:23;;;;;;;7.10;5.90;;;20.10;90.70;;;;;;5038191;28;20218;-87
2023/06/19 02:55:49;;;;;;;8.23;5.67;;;20.10;90.40;;;;;;5062369;28;20168;-87
2023/06/19 02:58:16;;;;;;;8.47;6.43;;;20.20;89.70;;;;;;5064304;28;20255;-87
2023/06/19 03:00:41;;;;;;;7.63;6.37;;;20.20;90.70;;;;;;5061543;28;20184;-83
2023/06/19 03:03:07;;;;;;;8.63;6.47;;;20.20;90.00;;;;;;5070834;28;20197;-84
2023/06/19 03:05:34;;;;;;;12.63;7.37;;;20.20;90.70;;;;;;5066865;28;20172;-83
2023/06/19 03:08:00;;;;;;;10.77;6.57;;;20.20;90.00;;;;;;5069988;28;20169;-84
2023/06/19 03:10:25;;;;;;;7.60;6.83;;;20.20;90.40;;;;;;5048651;28;20216;-85
2023/06/19 03:12:51;;;;;;;11.97;8.40;;;20.20;91.10;;;;;;5056057;28;20766;-88
2023/06/19 03:15:17;;;;;;;8.97;8.07;;;20.10;91.40;;;;;;5057301;28;20174;-85
2023/06/19 03:17:42;;;;;;;10.07;8.73;;;20.10;92.00;;;;;;5038914;28;20180;-86
2023/06/19 03:20:11;;;;;;;8.70;7.90;;;20.00;92.70;;;;;;5037426;28;20263;-86
2023/06/19 03:22:41;;;;;;;12.77;8.67;;;20.00;92.30;;;;;;5056239;28;20171;-85
2023/06/19 03:25:08;;;;;;;11.60;8.03;;;20.00;91.90;;;;;;5039002;28;20236;-86
2023/06/19 03:27:34;;;;;;;11.60;7.83;;;20.00;90.80;;;;;;5041284;28;20203;-84
2023/06/19 03:30:00;;;;;;;13.50;7.40;;;19.90;83.30;;;;;;5059890;28;20309;-83
2023/06/19 03:32:35;;;;;;;9.27;8.10;;;19.80;82.60;;;;;;5067430;28;20210;-86
2023/06/19 03:35:01;;;;;;;9.73;7.87;;;19.70;84.20;;;;;;5058323;28;20170;-83
2023/06/19 03:37:27;;;;;;;8.97;8.07;;;19.70;82.00;;;;;;5076150;28;20190;-81
2023/06/19 03:39:54;;;;;;;9.67;8.10;;;19.70;79.70;;;;;;5057273;28;20196;-84
2023/06/19 03:42:19;;;;;;;11.80;8.97;;;19.70;76.20;;;;;;5074623;28;20174;-83
2023/06/19 03:44:51;;;;;;;11.13;10.03;;;19.80;73.50;;;;;;5068952;28;20163;-85
2023/06/19 03:47:18;;;;;;;11.53;9.57;;;19.70;71.30;;;;;;5064249;28;20193;-85
2023/06/19 03:49:44;;;;;;;10.37;8.30;;;19.70;67.80;;;;;;5048469;28;20172;-87
2023/06/19 03:52:12;;;;;;;10.77;8.83;;;19.60;67.80;;;;;;5058841;28;20214;-85
2023/06/19 03:54:38;;;;;;;9.23;8.33;;;19.70;64.30;;;;;;5060412;28;20160;-83
2023/06/19 03:57:04;;;;;;;10.90;9.13;;;19.60;62.50;;;;;;5046760;28;20159;-83
2023/06/19 03:59:30;;;;;;;9.00;8.10;;;19.60;63.30;;;;;;5060319;28;20167;-83
2023/06/19 04:01:57;;;;;;;8.43;7.53;;;19.50;59.50;;;;;;5056084;28;20181;-87
2023/06/19 04:04:25;;;;;;;9.00;7.80;;;19.50;49.80;;;;;;5064076;28;20182;-86
2023/06/19 04:06:50;;;;;;;9.07;8.17;;;19.30;49.90;;;;;;5059509;28;20248;-86
2023/06/19 04:09:17;;;;;;;9.27;7.33;;;19.20;51.60;;;;;;5057113;28;20259;-87
2023/06/19 04:11:42;;;;;;;10.83;7.50;;;19.20;51.50;;;;;;5039213;28;20195;-86
2023/06/19 04:14:08;;;;;;;10.70;7.93;;;19.20;49.50;;;;;;5057501;28;20663;-86
2023/06/19 04:16:34;;;;;;;9.23;6.67;;;19.30;48.20;;;;;;5057909;28;20149;-87
2023/06/19 04:19:00;;;;;;;9.00;7.27;;;19.40;41.00;;;;;;5044166;28;20179;-88
2023/06/19 04:21:26;;;;;;;8.03;6.80;;;19.40;36.20;;;;;;5059680;28;20190;-85
2023/06/19 04:23:51;;;;;;;7.57;6.73;;;19.40;33.70;;;;;;5059042;28;20182;-87
2023/06/19 04:26:19;;;;;;;7.47;6.77;;;19.50;31.60;;;;;;5059474;28;20164;-87
2023/06/19 04:28:44;;;;;;;8.43;6.67;;;19.60;27.00;;;;;;5058761;28;20213;-87
2023/06/19 04:31:10;;;;;;;9.17;7.20;;;19.60;29.20;;;;;;5040841;28;20206;-87
2023/06/19 04:33:36;;;;;;;9.60;7.73;;;19.60;29.70;;;;;;5041393;28;20208;-86
2023/06/19 04:36:01;;;;;;;11.20;7.57;;;19.60;29.30;;;;;;5059563;28;20211;-86
2023/06/19 04:38:27;;;;;;;9.77;7.90;;;19.70;29.60;;;;;;5058459;28;20191;-85
2023/06/19 04:40:53;;;;;;;9.87;8.40;;;19.80;26.70;;;;;;5058477;28;20238;-86
2023/06/19 04:43:20;;;;;;;10.70;9.60;;;19.80;28.20;;;;;;5059561;28;20206;-87
2023/06/19 04:45:46;;;;;;;12.83;9.80;;;19.80;30.30;;;;;;5059422;28;20174;-84
2023/06/19 04:48:12;;;;;;;11.63;10.43;;;19.80;27.00;;;;;;5058790;28;20183;-85
2023/06/19 04:50:38;;;;;;;11.87;10.37;;;19.80;24.90;;;;;;5057303;28;20221;-86
2023/06/19 04:53:04;;;;;;;12.10;10.87;;;19.70;31.80;;;;;;5059055;28;20211;-86
2023/06/19 04:55:30;;;;;;;12.07;10.77;;;19.70;33.30;;;;;;5040320;28;20267;-83
2023/06/19 04:57:56;;;;;;;12.40;9.87;;;19.70;34.70;;;;;;5042260;28;20197;-86
2023/06/19 05:00:23;;;;;;;12.13;10.77;;;19.70;35.40;;;;;;5059834;28;20172;-88
2023/06/19 05:02:49;;;;;;;14.37;11.67;;;19.80;36.70;;;;;;5041666;28;20539;-88
2023/06/19 05:05:16;;;;;;;12.83;11.53;;;19.90;28.20;;;;;;5042608;28;20174;-88
2023/06/19 05:07:45;;;;;;;13.07;11.47;;;19.90;28.20;;;;;;5059998;28;20180;-87
2023/06/19 05:10:11;;;;;;;12.33;11.03;;;19.80;30.00;;;;;;5060361;28;20173;-87
2023/06/19 05:12:36;;;;;;;13.87;11.63;;;19.70;32.80;;;;;;5060000;28;20290;-86
2023/06/19 05:15:03;;;;;;;11.67;10.07;;;19.70;32.50;;;;;;5060020;28;20167;-87
2023/06/19 05:17:28;;;;;;;14.30;11.63;;;19.60;35.20;;;;;;5064282;28;20180;-86
2023/06/19 05:19:56;;;;;;;13.20;11.77;;;19.50;32.40;;;;;;5062535;28;20250;-81
2023/06/19 05:22:24;;;;;;;12.73;11.20;;;19.60;27.90;;;;;;5062977;28;20161;-81
2023/06/19 05:24:50;;;;;;;14.67;12.20;;;19.50;29.50;;;;;;5080455;28;20179;-84
2023/06/19 05:27:15;;;;;;;14.47;12.70;;;19.60;27.30;;;;;;5080111;28;20173;-84
2023/06/19 05:29:41;;;;;;;16.10;13.17;;;19.40;27.20;;;;;;5079450;28;20218;-82
2023/06/19 05:32:07;;;;;;;16.07;14.37;;;19.40;30.70;;;;;;5062855;28;20277;-84
2023/06/19 05:34:33;;;;;;;15.73;13.27;;;19.20;35.20;;;;;;5071357;28;20242;-80
2023/06/19 05:37:00;;;;;;;15.33;13.67;;;19.30;39.60;;;;;;5057046;28;20215;-76
2023/06/19 05:39:26;;;;;;;16.67;14.60;;;19.50;28.60;;;;;;5056993;28;20212;-76
2023/06/19 05:41:52;;;;;;;19.10;15.30;;;19.80;19.10;;;;;;5056937;28;20173;-78
2023/06/19 05:44:18;;;;;;;17.70;15.60;;;19.80;11.00;;;;;;5057177;28;20218;-78
2023/06/19 05:46:44;;;;;;;16.53;14.80;;;19.80;8.10;;;;;;5058566;28;20173;-78
2023/06/19 05:49:10;;;;;;;16.20;14.43;;;19.90;9.10;;;;;;5064598;28;20158;-88
2023/06/19 05:51:36;;;;;;;15.57;13.97;;;19.70;11.90;;;;;;5072707;28;20179;-81
2023/06/19 05:54:03;;;;;;;18.63;15.47;;;19.60;14.90;;;;;;5052929;28;20237;-81
2023/06/19 05:56:32;;;;;;;16.47;14.87;;;19.50;13.90;;;;;;5064198;28;20264;-80
2023/06/19 05:58:59;;;;;;;20.73;15.60;;;19.60;10.50;;;;;;5038431;28;20183;-81
2023/06/19 06:01:28;;;;;;;17.13;15.30;;;19.70;11.40;;;;;;5055185;28;20174;-80
2023/06/19 06:03:54;;;;;;;20.87;15.40;;;19.90;10.80;;;;;;5037019;28;20178;-80
2023/06/19 06:06:22;;;;;;;17.90;15.40;;;20.00;4.00;;;;;;5037590;28;20179;-80
2023/06/19 06:08:48;;;;;;;17.00;15.10;;;20.20;1.00;;;;;;5037633;28;20176;-80
2023/06/19 06:11:15;;;;;;;16.57;14.73;;;20.30;1.00;;;;;;5055079;28;20170;-79
2023/06/19 06:13:41;;;;;;;15.63;13.67;;;20.20;1.00;;;;;;5056477;28;20211;-78
2023/06/19 06:16:07;;;;;;;15.90;14.23;;;20.20;1.00;;;;;;5058534;28;20228;-79
2023/06/19 06:18:33;;;;;;;15.93;14.20;;;20.30;1.00;;;;;;5057720;28;20221;-79
2023/06/19 06:20:59;;;;;;;16.00;14.33;;;20.30;1.00;;;;;;5058580;28;20167;-79
2023/06/19 06:23:25;;;;;;;17.17;15.03;;;20.40;1.00;;;;;;5057946;28;20246;-77
2023/06/19 06:25:52;;;;;;;16.90;15.30;;;20.30;1.00;;;;;;5064524;28;20795;-80
2023/06/19 06:28:17;;;;;;;18.43;16.70;;;20.20;1.00;;;;;;5077275;28;20190;-83
2023/06/19 06:30:43;;;;;;;19.43;16.87;;;20.00;1.00;;;;;;5055726;28;20177;-83
2023/06/19 06:33:09;;;;;;;19.50;16.77;;;19.70;1.00;;;;;;5066901;28;20207;-84
2023/06/19 06:35:35;;;;;;;19.30;17.23;;;19.60;1.70;;;;;;5057258;28;20186;-83
2023/06/19 06:38:04;;;;;;;18.73;16.83;;;19.60;1.90;;;;;;5052291;28;20180;-83
2023/06/19 06:40:30;;;;;;;19.53;17.60;;;19.50;6.60;;;;;;5050034;28;20182;-86
2023/06/19 06:42:57;;;;;;;19.80;17.67;;;19.50;5.50;;;;;;5048681;28;20175;-80
2023/06/19 06:45:23;;;;;;;18.87;16.90;;;19.60;3.80;;;;;;5051911;28;20214;-83
2023/06/19 06:47:49;;;;;;;21.10;17.33;;;19.50;3.40;;;;;;5056317;28;20181;-83
2023/06/19 06:50:15;;;;;;;17.97;16.17;;;19.50;4.60;;;;;;5059434;28;20176;-85
2023/06/19 06:52:41;;;;;;;18.80;16.80;;;19.40;1.00;;;;;;5071471;28;20243;-84
2023/06/19 06:55:07;;;;;;;18.33;16.30;;;19.40;4.10;;;;;;5048838;28;20198;-81
2023/06/19 06:57:32;;;;;;;18.23;16.37;;;19.50;1.00;;;;;;5059614;28;20226;-78
2023/06/19 06:59:58;;;;;;;18.93;16.93;;;19.60;1.00;;;;;;5077977;28;20179;-81
2023/06/19 07:02:24;;;;;;;20.43;18.23;;;19.70;1.00;;;;;;5077768;28;20167;-80
2023/06/19 07:04:50;;;;;;;19.33;17.33;;;19.70;1.00;;;;;;5076356;28;20176;-79
2023/06/19 07:07:17;;;;;;;19.37;17.30;;;19.60;1.00;;;;;;5058052;28;20175;-82
2023/06/19 07:09:43;;;;;;;19.03;17.10;;;19.60;1.00;;;;;;5077092;28;20151;-81
2023/06/19 07:12:09;;;;;;;18.87;16.77;;;19.70;1.00;;;;;;5076284;28;20194;-83
2023/06/19 07:14:38;;;;;;;19.27;16.43;;;19.70;1.00;;;;;;5056836;28;20192;-84
2023/06/19 07:17:07;;;;;;;17.77;15.97;;;19.80;1.00;;;;;;5048502;28;20186;-82
2023/06/19 07:19:33;;;;;;;18.00;16.20;;;19.80;1.00;;;;;;5072641;28;20183;-80
2023/06/19 07:22:05;;;;;;;17.40;14.60;;;19.90;1.00;;;;;;5069360;28;20164;-80
2023/06/19 07:24:34;;;;;;;17.03;14.23;;;20.10;1.00;;;;;;5053442;28;20224;-81
2023/06/19 07:27:01;;;;;;;16.57;14.97;;;20.10;1.00;;;;;;5052256;28;20202;-83
2023/06/19 07:29:27;;;;;;;17.83;14.73;;;20.20;1.00;;;;;;5057641;28;20169;-83
2023/06/19 07:32:05;;;;;;;15.70;14.13;;;20.30;1.00;;;;;;5045702;28;20239;-81
2023/06/19 07:34:41;;;;;;;15.50;13.90;;;20.10;1.00;;;;;;5040477;28;20183;-83
2023/06/19 07:37:12;;;;;;;13.97;12.60;;;20.20;1.00;;;;;;5040332;28;20189;-83
2023/06/19 07:39:51;;;;;;;14.37;12.87;;;20.30;1.00;;;;;;5039050;28;20193;-84
2023/06/19 07:42:23;;;;;;;14.30;12.33;;;20.40;1.00;;;;;;5054480;28;20165;-82
2023/06/19 07:44:52;;;;;;;13.90;12.27;;;20.40;1.00;;;;;;5055756;28;20190;-83
2023/06/19 07:47:30;;;;;;;14.80;13.20;;;20.40;1.00;;;;;;5038004;28;20183;-84
2023/06/19 07:50:04;;;;;;;14.67;13.13;;;20.40;1.00;;;;;;5055509;28;20169;-83
2023/06/19 07:52:40;;;;;;;15.93;14.50;;;20.30;1.00;;;;;;5036336;28;20290;-85
2023/06/19 07:55:09;;;;;;;15.13;13.33;;;20.20;1.00;;;;;;5036487;28;20222;-84
2023/06/19 07:57:35;;;;;;;15.00;13.33;;;20.00;1.00;;;;;;5040844;28;20653;-84
2023/06/19 08:00:07;;;;;;;14.20;12.77;;;20.00;1.00;;;;;;5037388;28;20201;-83
2023/06/19 08:02:48;;;;;;;13.53;12.10;;;20.10;1.00;;;;;;5036887;28;20243;-83
2023/06/19 08:05:21;;;;;;;15.57;12.13;;;20.10;1.00;;;;;;5037288;28;20183;-85
2023/06/19 08:07:48;;;;;;;12.30;11.00;;;20.10;1.00;;;;;;5054102;28;20168;-86
2023/06/19 08:10:14;;;;;;;13.23;11.33;;;20.20;1.00;;;;;;5031691;28;20177;-84
2023/06/19 08:12:43;;;;;;;12.97;11.33;;;20.30;1.00;;;;;;5041890;28;20584;-85
2023/06/19 08:15:10;;;;;;;10.87;9.77;;;20.50;1.00;;;;;;5021106;28;20178;-83
2023/06/19 08:17:36;;;;;;;12.23;10.80;;;20.80;1.00;;;;;;5036634;28;20711;-84
2023/06/19 08:20:05;;;;;;;11.13;10.03;;;20.90;1.00;;;;;;5034759;28;20262;-83
2023/06/19 08:22:32;;;;;;;12.43;11.20;;;21.10;1.00;;;;;;5035250;28;20589;-85
2023/06/19 08:24:57;;;;;;;12.80;10.57;;;21.20;1.00;;;;;;5055072;28;20191;-87
2023/06/19 08:27:24;;;;;;;12.83;10.83;;;21.30;1.00;;;;;;5056610;28;20230;-86
2023/06/19 08:29:50;;;;;;;12.93;10.40;;;21.30;1.00;;;;;;5033061;28;20183;-81
2023/06/19 08:32:18;;;;;;;11.70;10.43;;;21.40;1.00;;;;;;5036784;28;20295;-85
2023/06/19 08:34:43;;;;;;;12.57;11.13;;;21.30;1.00;;;;;;5036941;28;20190;-84
2023/06/19 08:37:09;;;;;;;12.67;10.20;;;21.30;1.00;;;;;;5040587;28;20274;-85
2023/06/19 08:39:39;;;;;;;11.37;9.83;;;21.30;1.00;;;;;;5061062;28;20182;-84
2023/06/19 08:42:08;;;;;;;11.33;9.63;;;21.40;1.00;;;;;;5045912;28;20166;-85
2023/06/19 08:44:36;;;;;;;10.70;9.60;;;21.60;1.00;;;;;;5059530;28;20231;-86
2023/06/19 08:47:08;;;;;;;13.10;9.50;;;21.70;1.00;;;;;;5062024;28;20623;-81
2023/06/19 08:49:34;;;;;;;11.40;9.13;;;22.00;1.00;;;;;;5041129;28;20529;-84
2023/06/19 08:52:07;;;;;;;12.17;9.57;;;22.00;1.00;;;;;;5061882;28;20210;-85
2023/06/19 08:54:33;;;;;;;12.23;10.07;;;22.00;1.00;;;;;;5050284;28;20196;-81
2023/06/19 08:57:06;;;;;;;11.30;9.70;;;21.90;1.00;;;;;;5051491;28;20180;-81
2023/06/19 08:59:31;;;;;;;12.47;9.93;;;21.90;1.00;;;;;;5047028;28;20228;-83
2023/06/19 09:01:58;;;;;;;12.80;9.73;;;21.90;1.00;;;;;;5067658;28;20159;-81
2023/06/19 09:04:28;;;;;;;9.70;8.50;;;22.00;1.00;;;;;;5079068;28;20226;-82
2023/06/19 09:06:56;;;;;;;11.07;9.07;;;22.30;1.00;;;;;;5060600;28;20178;-79
2023/06/19 09:09:24;;;;;;;10.90;9.07;;;22.30;1.00;;;;;;5079184;28;20169;-81
2023/06/19 09:12:08;;;;;;;10.03;8.33;;;22.40;1.00;;;;;;5062255;28;20176;-81
2023/06/19 09:14:37;;;;;;;10.83;9.73;;;22.60;1.00;;;;;;5076894;28;20221;-84
2023/06/19 09:17:05;;;;;;;12.93;9.47;;;22.50;1.00;;;;;;5055879;28;20330;-80
2023/06/19 09:19:37;;;;;;;11.17;9.30;;;22.40;1.00;;;;;;5067940;28;20344;-83
2023/06/19 09:22:04;;;;;;;11.37;9.77;;;22.40;1.00;;;;;;5063409;28;20165;-79
2023/06/19 09:24:36;;;;;;;12.97;9.17;;;22.50;1.00;;;;;;5043222;28;20225;-83
2023/06/19 09:27:20;;;;;;;10.97;9.87;;;22.30;1.00;;;;;;5059116;28;20176;-86
2023/06/19 09:29:49;;;;;;;13.53;9.93;;;22.50;1.00;;;;;;5040898;28;20176;-83
2023/06/19 09:32:18;;;;;;;10.20;9.20;;;22.50;1.00;;;;;;5057129;28;20562;-80
2023/06/19 09:34:45;;;;;;;14.67;10.33;;;22.20;1.00;;;;;;5039937;28;20630;-83
2023/06/19 09:37:14;;;;;;;11.33;9.37;;;22.20;1.00;;;;;;5040104;28;20192;-85
2023/06/19 09:39:42;;;;;;;11.50;8.77;;;22.30;1.00;;;;;;5058473;28;20191;-83
2023/06/19 09:42:16;;;;;;;10.23;8.67;;;22.40;1.00;;;;;;5056961;28;20166;-83
2023/06/19 09:44:48;;;;;;;11.63;9.30;;;22.40;1.00;;;;;;5013744;28;20187;-83
2023/06/19 09:47:24;;;;;;;10.53;8.07;;;22.40;1.00;;;;;;5036643;28;20175;-85
2023/06/19 09:49:54;;;;;;;11.07;7.97;;;22.40;1.00;;;;;;5036099;28;20163;-84
2023/06/19 09:52:24;;;;;;;12.73;9.13;;;22.40;1.00;;;;;;5019550;28;20217;-87
2023/06/19 09:54:51;;;;;;;12.07;9.33;;;22.60;1.00;;;;;;5037648;28;20644;-86
2023/06/19 09:57:18;;;;;;;14.77;8.83;;;22.60;1.00;;;;;;5036097;28;20169;-84
2023/06/19 09:59:52;;;;;;;9.77;8.10;;;22.50;1.00;;;;;;5035923;28;20239;-82
2023/06/19 10:02:20;;;;;;;12.57;8.67;;;22.70;1.00;;;;;;5039451;28;20603;-82
2023/06/19 10:04:52;;;;;;;11.43;9.10;;;23.00;1.00;;;;;;5038441;28;20219;-82
2023/06/19 10:07:19;;;;;;;11.87;9.07;;;23.10;1.00;;;;;;5026286;28;20178;-80
2023/06/19 10:10:06;;;;;;;11.77;9.20;;;23.20;1.00;;;;;;5051866;28;20276;-80
2023/06/19 10:12:41;;;;;;;13.70;10.50;;;23.40;1.00;;;;;;5021628;28;20240;-84
2023/06/19 10:15:13;;;;;;;13.87;10.70;;;23.60;1.00;;;;;;5025011;28;20568;-81
2023/06/19 10:17:45;;;;;;;15.50;10.77;;;23.70;1.00;;;;;;5040412;28;20260;-83
2023/06/19 10:20:27;;;;;;;15.90;9.93;;;23.70;1.00;;;;;;5056999;28;20192;-84
2023/06/19 10:22:57;;;;;;;14.27;9.80;;;23.90;1.00;;;;;;5039360;28;20196;-85
2023/06/19 10:25:24;;;;;;;12.67;9.43;;;24.20;1.00;;;;;;5039618;28;20231;-85
2023/06/19 10:27:54;;;;;;;11.20;9.53;;;24.20;1.00;;;;;;5059377;28;20169;-83
2023/06/19 10:30:20;;;;;;;10.37;8.13;;;24.10;1.00;;;;;;5042200;28;20176;-85
2023/06/19 10:32:50;;;;;;;12.13;8.80;;;24.20;1.00;;;;;;5058001;28;20196;-84
2023/06/19 10:35:17;;;;;;;16.10;11.23;;;24.20;1.00;;;;;;5038815;28;20173;-83
2023/06/19 10:37:46;;;;;;;15.40;10.13;;;24.20;1.00;;;;;;5056337;28;20576;-83
2023/06/19 10:40:13;;;;;;;12.47;10.07;;;24.30;1.00;;;;;;5057438;28;20222;-82
2023/06/19 10:42:40;;;;;;;11.70;8.77;;;24.20;1.00;;;;;;5039752;28;20537;-81
2023/06/19 10:45:08;;;;;;;11.60;9.37;;;24.40;1.00;;;;;;5055892;28;20547;-80
2023/06/19 10:47:35;;;;;;;12.13;9.43;;;24.40;1.00;;;;;;5038435;28;20169;-83
2023/06/19 10:50:02;;;;;;;15.53;9.60;;;24.60;1.00;;;;;;5055406;28;20642;-83
2023/06/19 10:52:30;;;;;;;13.20;9.60;;;24.70;1.00;;;;;;5055470;28;20200;-83
2023/06/19 10:54:57;;;;;;;11.90;9.23;;;24.80;99.90;;;;;;5037390;28;20577;-81
2023/06/19 10:57:30;;;;;;;10.90;7.90;;;24.60;1.00;;;;;;5038840;28;20296;-84
2023/06/19 10:59:59;;;;;;;9.80;8.27;;;24.70;1.00;;;;;;5044802;28;20173;-81
2023/06/19 11:02:25;;;;;;;11.50;8.63;;;24.90;1.00;;;;;;5049453;28;20205;-83
2023/06/19 11:04:57;;;;;;;12.63;8.80;;;24.90;99.90;;;;;;5071619;28;20652;-80
2023/06/19 11:07:23;;;;;;;13.47;9.30;;;25.00;99.90;;;;;;5073553;28;20169;-84
2023/06/19 11:09:49;;;;;;;12.80;9.70;;;25.10;99.90;;;;;;5057560;28;20173;-83
2023/06/19 11:12:21;;;;;;;16.67;9.63;;;25.10;99.90;;;;;;5038742;28;20203;-84
2023/06/19 11:14:48;;;;;;;13.63;10.70;;;25.00;99.90;;;;;;5054837;28;20242;-82
2023/06/19 11:17:20;;;;;;;18.23;11.30;;;24.80;99.90;;;;;;5038673;28;20234;-83
2023/06/19 11:19:46;;;;;;;19.73;11.03;;;24.60;99.90;;;;;;5056420;28;20165;-81
2023/06/19 11:22:12;;;;;;;16.13;11.27;;;24.50;99.90;;;;;;5039257;28;20168;-81
2023/06/19 11:24:44;;;;;;;17.53;10.57;;;24.20;1.00;;;;;;5057423;28;20185;-85
2023/06/19 11:27:18;;;;;;;17.57;11.97;;;24.30;1.00;;;;;;5038402;28;20183;-85
2023/06/19 11:29:44;;;;;;;18.50;13.80;;;24.50;1.00;;;;;;5057180;28;20171;-85
2023/06/19 11:32:14;;;;;;;14.57;12.37;;;24.60;1.00;;;;;;5057743;28;20205;-81
2023/06/19 11:34:40;;;;;;;16.80;12.07;;;24.60;1.00;;;;;;5056594;28;20164;-85
2023/06/19 11:37:15;;;;;;;15.80;12.10;;;24.60;1.00;;;;;;5057475;28;20193;-87
2023/06/19 11:39:44;;;;;;;14.03;10.07;;;24.20;99.90;;;;;;5057391;28;20191;-84
2023/06/19 11:42:10;;;;;;;12.27;9.47;;;24.30;1.00;;;;;;5057685;28;20165;-84
2023/06/19 11:44:35;;;;;;;15.17;10.03;;;24.60;99.90;;;;;;5055322;28;20171;-77
2023/06/19 11:47:03;;;;;;;10.50;8.50;;;24.90;99.90;;;;;;5053000;28;20160;-79
2023/06/19 11:49:35;;;;;;;18.07;9.10;;;25.10;99.90;;;;;;5052617;28;20168;-81
2023/06/19 11:52:01;;;;;;;11.43;8.77;;;25.20;99.90;;;;;;5052496;28;20199;-77
2023/06/19 11:54:27;;;;;;;13.90;8.70;;;25.30;99.90;;;;;;5048852;28;20180;-81
2023/06/19 11:56:53;;;;;;;14.10;8.43;;;25.50;99.90;;;;;;5047222;28;20256;-79
2023/06/19 11:59:18;;;;;;;11.57;9.27;;;25.20;99.90;;;;;;5048715;28;20185;-76
2023/06/19 12:01:44;;;;;;;10.40;8.03;;;25.20;99.90;;;;;;5048625;28;20248;-78
2023/06/19 12:04:10;;;;;;;13.63;8.47;;;25.40;60.90;;;;;;5049153;28;20195;-78
2023/06/19 12:06:36;;;;;;;11.83;8.70;;;25.60;1.00;;;;;;5048825;28;20421;-77
2023/06/19 12:09:04;;;;;;;10.57;8.07;;;25.40;1.00;;;;;;5052374;28;20250;-77
2023/06/19 12:11:30;;;;;;;10.37;7.20;;;25.60;1.00;;;;;;5046040;28;20180;-76
2023/06/19 12:13:57;;;;;;;13.33;9.07;;;25.70;99.90;;;;;;5046223;28;20716;-76
2023/06/19 12:16:23;;;;;;;14.43;8.57;;;25.40;99.90;;;;;;5047877;28;20180;-75
2023/06/19 12:18:49;;;;;;;9.37;7.47;;;25.40;1.00;;;;;;5047565;28;20188;-74
2023/06/19 12:21:15;;;;;;;10.07;7.90;;;25.40;1.00;;;;;;5048084;28;20184;-75
2023/06/19 12:23:41;;;;;;;14.57;9.03;;;25.60;99.90;;;;;;5048295;28;20256;-75
2023/06/19 12:26:06;;;;;;;12.10;8.83;;;25.90;99.90;;;;;;5048431;28;20341;-75
2023/06/19 12:28:32;;;;;;;10.07;8.07;;;26.20;99.90;;;;;;5048934;28;20177;-76
2023/06/19 12:30:58;;;;;;;10.27;7.90;;;26.10;1.00;;;;;;5048212;28;20691;-76
2023/06/19 12:33:24;;;;;;;10.40;7.87;;;26.10;1.00;;;;;;5050283;28;20204;-74
2023/06/19 12:35:50;;;;;;;9.53;7.20;;;25.80;99.90;;;;;;5048911;28;20990;-75
2023/06/19 12:38:15;;;;;;;10.97;8.10;;;26.00;99.90;;;;;;5050733;28;20196;-74
2023/06/19 12:40:41;;;;;;;9.43;7.10;;;25.90;1.00;;;;;;5052151;28;20184;-76
2023/06/19 12:43:07;;;;;;;9.13;7.90;;;25.70;99.90;;;;;;5052094;28;20180;-76